»·PEaware :: N83364 KLAX-KSNA

N83364 :: KLAX-KSNA

FLIGHT INFORMATION

Flight Status: Arrived
Operator: Privately registered:
United States
More flights under this callsign
Pilot: Bill F. (18685)
Aircraft: PIPER PA-28R-201 ARROW
(P28R)
More flights by this aircraft type
Origin: KLAX Los Angeles Intl
United States
Destination: KSNA John Wayne-Orange Co
United States
More flights between these airports :: More routes between these airports
Route: SLI8 SLI
File this flight plan on PilotEdge
Remarks:
Altitude:
(Current/Filed)
4,000ft
Speed:
(Current/Filed)
125kts
Departed: 10-Jan-22 09:04 PM
Arrived: 10-Jan-22 09:42 PM
Distance/Time
Traveled:
31nm/0:38
Distance/Time
To Go:
Arrived

Flight Plot

Page will automatically refresh every two minutes.

Flight plan parsing failed; only flown route is shown


Map Options




Map Legend


Flown Route
Filed Route
Departure Airport
Arrival Airport
Navaid (VOR, NDB)
Fix

Horizontal Profiles

Position Reports

Time Latitude Longitude Heading Altitude Ground
Speed
10-Jan-22 20:39 33.934050 -118.395479 178 119ft 0kts
10-Jan-22 20:40 33.934050 -118.395479 178 119ft 0kts
10-Jan-22 20:41 33.934050 -118.395479 178 119ft 0kts
10-Jan-22 20:42 33.934050 -118.395479 178 119ft 0kts
10-Jan-22 20:43 33.934050 -118.395479 178 119ft 0kts
10-Jan-22 20:44 33.934050 -118.395479 178 119ft 0kts
10-Jan-22 20:45 33.934050 -118.395479 178 119ft 0kts
10-Jan-22 20:46 33.934050 -118.395479 178 119ft 0kts
10-Jan-22 20:47 33.934050 -118.395479 178 119ft 0kts
10-Jan-22 20:48 33.934050 -118.395479 178 119ft 0kts
10-Jan-22 20:49 33.934050 -118.395479 178 119ft 0kts
10-Jan-22 20:50 33.934050 -118.395479 178 119ft 0kts
10-Jan-22 20:51 33.934050 -118.395479 178 119ft 0kts
10-Jan-22 20:52 33.934050 -118.395479 178 119ft 0kts
10-Jan-22 20:53 33.934050 -118.395479 178 119ft 0kts
10-Jan-22 20:54 33.934050 -118.395479 178 119ft 0kts
10-Jan-22 20:55 33.934050 -118.395479 178 119ft 0kts
10-Jan-22 20:56 33.933976 -118.395291 75 119ft 0kts
10-Jan-22 20:57 33.933976 -118.395291 75 119ft 0kts
10-Jan-22 20:58 33.934973 -118.393249 46 119ft 7kts
10-Jan-22 20:59 33.935731 -118.386638 83 119ft 22kts
10-Jan-22 21:00 33.936476 -118.382774 11 119ft 0kts
10-Jan-22 21:01 33.936477 -118.382774 11 119ft 0kts
10-Jan-22 21:02 33.936530 -118.382765 2 119ft 3kts
10-Jan-22 21:03 33.936760 -118.388492 259 128ft 77kts
10-Jan-22 21:04 33.933658 -118.419171 265 1084ft 91kts
10-Jan-22 21:05 33.925950 -118.448161 218 2044ft 98kts
10-Jan-22 21:06 33.904329 -118.467557 203 2929ft 102kts
10-Jan-22 21:07 33.875674 -118.468716 182 3777ft 103kts
10-Jan-22 21:08 33.843663 -118.466657 180 4081ft 135kts
10-Jan-22 21:09 33.810661 -118.452850 131 4043ft 139kts
10-Jan-22 21:10 33.785850 -118.416638 129 4039ft 140kts
10-Jan-22 21:11 33.760856 -118.380350 130 4040ft 140kts
10-Jan-22 21:12 33.738533 -118.348462 130 4040ft 139kts
10-Jan-22 21:13 33.715108 -118.311606 101 4035ft 139kts
10-Jan-22 21:14 33.725181 -118.267122 70 4034ft 139kts
10-Jan-22 21:15 33.737727 -118.223064 70 4035ft 139kts
10-Jan-22 21:16 33.750331 -118.178960 70 4034ft 139kts
10-Jan-22 21:17 33.762953 -118.134878 70 4034ft 139kts
10-Jan-22 21:18 33.775559 -118.090921 70 4034ft 139kts
10-Jan-22 21:19 33.788133 -118.047089 70 4034ft 139kts
10-Jan-22 21:20 33.803463 -118.004467 61 4034ft 139kts
10-Jan-22 21:21 33.822134 -117.963705 60 4034ft 139kts
10-Jan-22 21:22 33.840933 -117.922974 60 4034ft 139kts
10-Jan-22 21:23 33.859749 -117.882300 60 4035ft 139kts
10-Jan-22 21:24 33.877893 -117.841347 65 3697ft 137kts
10-Jan-22 21:25 33.891447 -117.799284 69 3497ft 130kts
10-Jan-22 21:26 33.901929 -117.758022 78 3490ft 128kts
10-Jan-22 21:27 33.914914 -117.719702 53 3586ft 127kts
10-Jan-22 21:28 33.943483 -117.695448 30 3597ft 123kts
10-Jan-22 21:29 33.974036 -117.675575 5 3604ft 124kts
10-Jan-22 21:30 33.972566 -117.700842 186 3551ft 125kts
10-Jan-22 21:31 33.939800 -117.704515 196 3707ft 115kts
10-Jan-22 21:32 33.908693 -117.719628 205 3710ft 122kts
10-Jan-22 21:33 33.876972 -117.738123 202 3432ft 128kts
10-Jan-22 21:34 33.845959 -117.756385 217 3337ft 121kts
10-Jan-22 21:35 33.817762 -117.777931 210 3255ft 126kts
10-Jan-22 21:36 33.786361 -117.798878 202 2540ft 131kts
10-Jan-22 21:37 33.754229 -117.816871 208 1766ft 123kts
10-Jan-22 21:38 33.735624 -117.829169 214 1139ft 103kts
10-Jan-22 21:39 33.711889 -117.846180 212 711ft 97kts
10-Jan-22 21:40 33.688985 -117.859194 212 330ft 88kts
10-Jan-22 21:41 33.674172 -117.870123 253 48ft 22kts
10-Jan-22 21:42 33.674051 -117.871406 203 45ft 11kts
10-Jan-22 21:43 33.670189 -117.874299 271 45ft 7kts
10-Jan-22 21:44 33.670417 -117.875162 113 44ft 0kts
10-Jan-22 21:45 33.670417 -117.875162 113 44ft 0kts
10-Jan-22 21:46 33.670417 -117.875162 113 44ft 0kts
10-Jan-22 21:47 33.670417 -117.875162 113 44ft 0kts
10-Jan-22 21:48 33.670417 -117.875162 113 44ft 0kts
10-Jan-22 21:49 33.670417 -117.875162 113 44ft 0kts
10-Jan-22 21:50 33.670417 -117.875162 113 44ft 0kts

Navigation Log

Ident Type
Flight plan parsing failed, navigation log unavailable